aviador You're here:

KPBG Decoded Metar

PLATTSBURGH in NY, USA
Report Time2018-05-23 15:53:00
UTC Time2018-05-23 16:28:05
Flight Rules vfr VFR
Wind110° at 08 kt
W.Decomp.*RWY 17: 5.7 kt HW 5.7 kt LCW
W.Rank110° ranks 31
Current wind is above 110° avg. (5.1)
Visibility9999 m
Phenomena:N/A
Clouds:Few 055 Hf
Expected CloudBase > 2,400 ft AGL from Temp-Dew spread
CeilingNone
Temp19°C (ISA +4)
Dew Point13°C (68% RH)
AAT17.0°C
QNH1012 hPa
Density Alt994 ft
Elevation236 ft
Report Wrong Elevation
Raw Report
KPBG 231553Z AUTO 11008KT 10SM FEW055 19/13 A2989 RMK AO2 SLP123
T01940133=

Extra information for KPBG:More info

Metar Taf Metar & Taf Last 4 Metars F.Rules Stats Wind Profile Meteogram Temp Stats Airport Information Weather charts Add Link Nearby VenuesMetar ALERT Operation Metar Decoded Social comments

AIRNAV info for KPBG